Time;durP1;ratioP1;P1;durP2;ratioP2;P2;SDS_P1;SDS_P2;PMS_P1;PMS_P2;Temp;Humidity;BMP_temperature;BMP_pressure;BME280_temperature;BME280_humidity;BME280_pressure;Samples;Min_cycle;Max_cycle;Signal;HPM_P1;HPM_P2
2023/04/14 00:00:47;;;;;;;1.50;0.70;;;;;;;-147.53;100.00;57128.34;10450889;28;20040;-77
2023/04/14 00:05:49;;;;;;;0.98;0.90;;;;;;;-147.53;100.00;57128.34;10457556;28;20045;-77
2023/04/14 00:10:50;;;;;;;0.32;0.30;;;;;;;-147.53;100.00;57128.34;10457280;28;20087;-77
2023/04/14 00:15:52;;;;;;;1.27;1.05;;;;;;;-147.53;100.00;57128.34;10465173;28;20037;-77
2023/04/14 00:20:53;;;;;;;0.47;0.47;;;;;;;-147.53;100.00;57128.34;10441628;28;20040;-76
2023/04/14 00:25:55;;;;;;;0.68;0.65;;;;;;;-147.53;100.00;57128.34;10464828;28;20415;-76
2023/04/14 00:30:56;;;;;;;0.30;0.30;;;;;;;-147.53;100.00;57128.34;10463790;28;20041;-78
2023/04/14 00:35:58;;;;;;;0.52;0.50;;;;;;;-147.53;100.00;57128.34;10455255;28;20041;-76
2023/04/14 00:40:59;;;;;;;0.68;0.63;;;;;;;-147.53;100.00;57128.34;10462001;28;20432;-77
2023/04/14 00:46:01;;;;;;;0.40;0.40;;;;;;;-147.53;100.00;57128.34;10449220;28;20143;-76
2023/04/14 00:51:03;;;;;;;0.50;0.50;;;;;;;-147.53;100.00;57128.34;10440721;28;20071;-76
2023/04/14 00:56:05;;;;;;;1.23;0.73;;;;;;;-147.53;100.00;57128.34;10460698;28;20056;-76
2023/04/14 01:01:07;;;;;;;1.13;0.50;;;;;;;-147.53;100.00;57128.34;10455090;28;20622;-76
2023/04/14 01:06:09;;;;;;;0.60;0.20;;;;;;;-147.53;100.00;57128.34;10455235;28;20044;-77
2023/04/14 01:11:42;;;;;;;0.70;0.50;;;;;;;-147.53;100.00;57128.34;10431711;28;20815;-77
2023/04/14 01:16:48;;;;;;;0.47;0.38;;;;;;;-147.53;100.00;57128.34;10462608;28;20452;-76
2023/04/14 01:21:55;;;;;;;0.63;0.60;;;;;;;-147.53;100.00;57128.34;10455174;28;20057;-78
2023/04/14 01:27:35;;;;;;;0.40;0.40;;;;;;;-147.53;100.00;57128.34;10454910;28;20064;-76
2023/04/14 01:32:43;;;;;;;1.25;0.45;;;;;;;-147.53;100.00;57128.34;10447106;28;20542;-76
2023/04/14 01:37:51;;;;;;;0.88;0.63;;;;;;;-147.53;100.00;57128.34;10446622;28;20037;-77
2023/04/14 01:43:03;;;;;;;1.00;0.65;;;;;;;-147.53;100.00;57128.34;10464977;28;20807;-77
2023/04/14 01:48:06;;;;;;;0.30;0.30;;;;;;;-147.53;100.00;57128.34;10477124;28;20055;-76
2023/04/14 01:53:10;;;;;;;0.60;0.52;;;;;;;-147.53;100.00;57128.34;10461769;28;20053;-76
2023/04/14 01:58:15;;;;;;;0.77;0.40;;;;;;;-147.53;100.00;57128.34;10473017;28;20033;-76
2023/04/14 02:03:22;;;;;;;0.40;0.40;;;;;;;-147.53;100.00;57128.34;10461939;28;20085;-76
2023/04/14 02:08:24;;;;;;;0.60;0.60;;;;;;;-147.53;100.00;57128.34;10464587;28;20067;-76
2023/04/14 02:13:28;;;;;;;1.20;1.08;;;;;;;-147.53;100.00;57128.34;10451348;28;20059;-77
2023/04/14 02:18:30;;;;;;;0.20;0.20;;;;;;;-147.53;100.00;57128.34;10456056;28;20507;-76
2023/04/14 02:23:32;;;;;;;2.22;1.30;;;;;;;-147.53;100.00;57128.34;10460681;28;20041;-77
2023/04/14 02:28:40;;;;;;;0.20;0.20;;;;;;;-147.53;100.00;57128.34;10473956;28;20087;-77
2023/04/14 02:33:43;;;;;;;0.57;0.57;;;;;;;-147.53;100.00;57128.34;10476373;28;20048;-76
2023/04/14 02:39:02;;;;;;;1.58;1.13;;;;;;;-147.53;100.00;57128.34;10473300;28;20037;-76
2023/04/14 02:44:18;;;;;;;0.20;0.20;;;;;;;-147.53;100.00;57128.34;10474213;28;20594;-76
2023/04/14 02:49:22;;;;;;;0.65;0.65;;;;;;;-147.53;100.00;57128.34;10465325;28;20056;-76
2023/04/14 02:54:26;;;;;;;0.98;0.57;;;;;;;-147.53;100.00;57128.34;10469261;28;20475;-76
2023/04/14 02:59:30;;;;;;;0.93;0.47;;;;;;;-147.53;100.00;57128.34;10448896;28;20044;-76
2023/04/14 03:04:37;;;;;;;0.57;0.55;;;;;;;-147.53;100.00;57128.34;10447695;28;20074;-76
2023/04/14 03:09:48;;;;;;;0.97;0.43;;;;;;;-147.53;100.00;57128.34;10458095;28;20041;-76
2023/04/14 03:14:52;;;;;;;0.60;0.50;;;;;;;-147.53;100.00;57128.34;10422574;28;20541;-77
2023/04/14 03:19:55;;;;;;;0.45;0.45;;;;;;;-147.53;100.00;57128.34;10448947;28;20048;-76
2023/04/14 03:24:57;;;;;;;0.73;0.55;;;;;;;-147.53;100.00;57128.34;10449347;28;20217;-77
2023/04/14 03:30:06;;;;;;;0.52;0.52;;;;;;;-147.53;100.00;57128.34;10439269;28;20037;-76
2023/04/14 03:35:13;;;;;;;2.30;1.45;;;;;;;-147.53;100.00;57128.34;10451907;28;20792;-77
2023/04/14 03:40:16;;;;;;;0.32;0.32;;;;;;;-147.53;100.00;57128.34;10438993;28;20110;-76
2023/04/14 03:45:22;;;;;;;0.38;0.38;;;;;;;-147.53;100.00;57128.34;10422769;28;20044;-76
2023/04/14 03:50:30;;;;;;;0.73;0.73;;;;;;;-147.53;100.00;57128.34;10456083;28;20464;-76
2023/04/14 03:55:34;;;;;;;0.30;0.30;;;;;;;-147.53;100.00;57128.34;10455082;28;20045;-77
2023/04/14 04:00:37;;;;;;;0.30;0.30;;;;;;;-147.53;100.00;57128.34;10448853;28;20033;-76
2023/04/14 04:05:40;;;;;;;0.93;0.52;;;;;;;-147.53;100.00;57128.34;10462996;28;20156;-76
2023/04/14 04:10:45;;;;;;;0.73;0.70;;;;;;;-147.53;100.00;57128.34;10446735;28;20040;-77
2023/04/14 04:15:48;;;;;;;0.88;0.80;;;;;;;-147.53;100.00;57128.34;10454283;28;20033;-77
2023/04/14 04:20:51;;;;;;;0.45;0.45;;;;;;;-147.53;100.00;57128.34;10463785;28;20137;-77
2023/04/14 04:25:53;;;;;;;1.85;1.17;;;;;;;-147.53;100.00;57128.34;10462657;28;20555;-77
2023/04/14 04:31:03;;;;;;;0.27;0.27;;;;;;;-147.53;100.00;57128.34;10438975;28;20511;-78
2023/04/14 04:36:06;;;;;;;0.90;0.40;;;;;;;-147.53;100.00;57128.34;10445898;28;20052;-77
2023/04/14 04:41:20;;;;;;;0.95;0.80;;;;;;;-147.53;100.00;57128.34;10476921;28;20036;-77
2023/04/14 04:46:45;;;;;;;0.97;0.47;;;;;;;-147.53;100.00;57128.34;10447457;28;20094;-77
2023/04/14 04:51:48;;;;;;;0.32;0.32;;;;;;;-147.53;100.00;57128.34;10453907;28;20047;-78
2023/04/14 04:56:52;;;;;;;1.45;0.88;;;;;;;-147.53;100.00;57128.34;10436022;28;20067;-77
2023/04/14 05:01:54;;;;;;;1.17;0.68;;;;;;;-147.53;100.00;57128.34;10447331;28;20090;-77
2023/04/14 05:06:56;;;;;;;0.50;0.30;;;;;;;-147.53;100.00;57128.34;10448150;28;20558;-77
2023/04/14 05:11:57;;;;;;;1.67;0.80;;;;;;;-147.53;100.00;57128.34;10453024;28;20037;-77
2023/04/14 05:16:59;;;;;;;6.10;0.60;;;;;;;-147.53;100.00;57128.34;10469387;28;20113;-77
2023/04/14 05:22:00;;;;;;;2.20;1.40;;;;;;;-147.53;100.00;57128.34;10452445;28;20056;-76
2023/04/14 05:27:02;;;;;;;0.28;0.28;;;;;;;-147.53;100.00;57128.34;10453149;28;20091;-76
2023/04/14 05:32:15;;;;;;;0.63;0.63;;;;;;;-147.53;100.00;57128.34;10453903;28;20045;-77
2023/04/14 05:37:16;;;;;;;2.75;1.35;;;;;;;-147.53;100.00;57128.34;10439591;28;20047;-76
2023/04/14 05:42:18;;;;;;;0.60;0.60;;;;;;;-147.53;100.00;57128.34;10452203;28;20040;-77
2023/04/14 05:47:19;;;;;;;2.22;1.38;;;;;;;-147.53;100.00;57128.34;10452127;28;20075;-77
2023/04/14 05:52:21;;;;;;;2.60;1.15;;;;;;;-147.53;100.00;57128.34;10444409;28;20045;-77
2023/04/14 05:57:22;;;;;;;1.95;0.93;;;;;;;-147.53;100.00;57128.34;10451712;28;20039;-77
2023/04/14 06:02:24;;;;;;;1.90;1.52;;;;;;;-147.53;100.00;57128.34;10461992;28;20033;-77
2023/04/14 06:07:26;;;;;;;0.52;0.52;;;;;;;-147.53;100.00;57128.34;10471619;28;20049;-77
2023/04/14 06:12:28;;;;;;;1.33;1.17;;;;;;;-147.53;100.00;57128.34;10471997;28;20036;-77
2023/04/14 06:17:30;;;;;;;2.13;1.52;;;;;;;-147.53;100.00;57128.34;10457737;28;20100;-77
2023/04/14 06:22:32;;;;;;;1.55;1.20;;;;;;;-147.53;100.00;57128.34;10462399;28;20041;-77
2023/04/14 06:27:33;;;;;;;2.08;1.30;;;;;;;-147.53;100.00;57128.34;10468392;28;20108;-77
2023/04/14 06:32:35;;;;;;;2.20;1.50;;;;;;;-147.53;100.00;57128.34;10456996;28;20033;-77
2023/04/14 06:37:37;;;;;;;2.58;1.58;;;;;;;-147.53;100.00;57128.34;10465185;28;20118;-77
2023/04/14 06:42:38;;;;;;;3.47;2.08;;;;;;;-147.53;100.00;57128.34;10453058;28;20052;-77
2023/04/14 06:47:40;;;;;;;2.15;1.50;;;;;;;-147.53;100.00;57128.34;10460992;28;20052;-77
2023/04/14 06:52:41;;;;;;;2.90;1.85;;;;;;;-147.53;100.00;57128.34;10458392;28;20471;-77
2023/04/14 06:57:43;;;;;;;2.28;1.40;;;;;;;-147.53;100.00;57128.34;10460884;28;20041;-77
2023/04/14 07:02:45;;;;;;;2.45;1.45;;;;;;;-147.53;100.00;57128.34;10460941;28;20669;-78
2023/04/14 07:07:46;;;;;;;6.68;2.92;;;;;;;-147.53;100.00;57128.34;10464700;28;20059;-78
2023/04/14 07:12:48;;;;;;;7.50;2.85;;;;;;;-147.53;100.00;57128.34;10460226;28;20497;-77
2023/04/14 07:17:49;;;;;;;7.53;3.88;;;;;;;-147.53;100.00;57128.34;10462819;28;20044;-78
2023/04/14 07:22:51;;;;;;;6.57;3.58;;;;;;;-147.53;100.00;57128.34;10454698;28;21022;-78
2023/04/14 07:27:53;;;;;;;7.72;4.43;;;;;;;-147.53;100.00;57128.34;10455970;28;20045;-78
2023/04/14 07:33:03;;;;;;;7.55;3.60;;;;;;;-147.53;100.00;57128.34;10441666;28;20569;-78
2023/04/14 07:38:05;;;;;;;8.85;4.13;;;;;;;-147.53;100.00;57128.34;10462449;28;20052;-78
2023/04/14 07:43:07;;;;;;;10.98;2.97;;;;;;;-147.53;100.00;57128.34;10449777;28;20043;-78
2023/04/14 07:48:09;;;;;;;4.18;2.40;;;;;;;-147.53;100.00;57128.34;10459389;28;20103;-78
2023/04/14 07:53:10;;;;;;;6.25;2.53;;;;;;;-147.53;100.00;57128.34;10474751;28;20130;-76
2023/04/14 07:58:12;;;;;;;8.77;2.47;;;;;;;-147.53;100.00;57128.34;10467418;28;20048;-76
2023/04/14 08:03:16;;;;;;;6.85;2.75;;;;;;;-147.53;100.00;57128.34;10439548;28;20044;-75
2023/04/14 08:08:18;;;;;;;6.20;2.22;;;;;;;-147.53;100.00;57128.34;10445622;28;20516;-76
2023/04/14 08:13:20;;;;;;;7.40;2.55;;;;;;;-147.53;100.00;57128.34;10449385;28;20339;-76
2023/04/14 08:18:21;;;;;;;5.57;2.35;;;;;;;-147.53;100.00;57128.34;10447326;28;20110;-75
2023/04/14 08:23:23;;;;;;;6.50;2.90;;;;;;;-147.53;100.00;57128.34;10463936;28;20059;-75
2023/04/14 08:28:26;;;;;;;5.03;2.10;;;;;;;-147.53;100.00;57128.34;10462435;28;20052;-76
2023/04/14 08:33:28;;;;;;;6.97;2.67;;;;;;;-147.53;100.00;57128.34;10424521;28;20427;-77
2023/04/14 08:38:29;;;;;;;5.88;2.25;;;;;;;-147.53;100.00;57128.34;10461506;28;20037;-76
2023/04/14 08:43:31;;;;;;;5.43;2.05;;;;;;;-147.53;100.00;57128.34;10477287;28;20401;-76
2023/04/14 08:48:34;;;;;;;3.08;1.83;;;;;;;-147.53;100.00;57128.34;10451879;28;20052;-75
2023/04/14 08:53:44;;;;;;;3.67;2.03;;;;;;;-147.53;100.00;57128.34;10456248;28;20041;-75
2023/04/14 08:58:47;;;;;;;6.60;2.22;;;;;;;-147.53;100.00;57128.34;10455043;28;20451;-76
2023/04/14 09:03:49;;;;;;;4.45;1.90;;;;;;;-147.53;100.00;57128.34;10461914;28;20513;-76
2023/04/14 09:08:52;;;;;;;3.47;1.60;;;;;;;-147.53;100.00;57128.34;10457830;28;20112;-76
2023/04/14 09:13:57;;;;;;;3.10;1.50;;;;;;;-147.53;100.00;57128.34;10475906;28;20136;-77
2023/04/14 09:18:59;;;;;;;5.63;1.67;;;;;;;-147.53;100.00;57128.34;10456076;28;20055;-76
2023/04/14 09:24:08;;;;;;;3.60;1.33;;;;;;;-147.53;100.00;57128.34;10469465;28;20048;-76
2023/04/14 09:29:12;;;;;;;5.18;1.40;;;;;;;-147.53;100.00;57128.34;10436724;28;20127;-76
2023/04/14 09:34:19;;;;;;;2.80;1.38;;;;;;;-147.53;100.00;57128.34;10457515;28;20579;-77
2023/04/14 09:39:21;;;;;;;3.40;1.05;;;;;;;-147.53;100.00;57128.34;10457994;28;20044;-77
2023/04/14 09:44:23;;;;;;;2.92;1.10;;;;;;;-147.53;100.00;57128.34;10460438;28;20097;-77
2023/04/14 09:49:25;;;;;;;3.83;1.20;;;;;;;-147.53;100.00;57128.34;10454072;28;20516;-77
2023/04/14 09:54:26;;;;;;;2.72;1.20;;;;;;;-147.53;100.00;57128.34;10451773;28;20045;-76
2023/04/14 09:59:30;;;;;;;2.67;1.45;;;;;;;-147.53;100.00;57128.34;10468805;28;20094;-75
2023/04/14 10:04:32;;;;;;;3.72;1.35;;;;;;;-147.53;100.00;57128.34;10469828;28;20044;-78
2023/04/14 10:09:39;;;;;;;2.72;1.30;;;;;;;-147.53;100.00;57128.34;10464223;28;20040;-77
2023/04/14 10:14:42;;;;;;;3.00;1.15;;;;;;;-147.53;100.00;57128.34;10460092;28;20045;-77
2023/04/14 10:19:45;;;;;;;3.67;1.27;;;;;;;-147.53;100.00;57128.34;10464073;28;20094;-74
2023/04/14 10:24:48;;;;;;;3.42;1.48;;;;;;;-147.53;100.00;57128.34;10453696;28;20079;-75
2023/04/14 10:29:50;;;;;;;3.80;1.20;;;;;;;-147.53;100.00;57128.34;10443707;28;20389;-76
2023/04/14 10:35:08;;;;;;;1.88;1.00;;;;;;;-147.53;100.00;57128.34;10442468;28;20052;-76
2023/04/14 10:40:09;;;;;;;6.40;1.27;;;;;;;-147.53;100.00;57128.34;10452001;28;20602;-76
2023/04/14 10:45:11;;;;;;;3.70;1.20;;;;;;;-147.53;100.00;57128.34;10462072;28;20527;-76
2023/04/14 10:50:20;;;;;;;4.10;0.70;;;;;;;-147.53;100.00;57128.34;10460769;28;20887;-76
2023/04/14 10:55:24;;;;;;;3.15;1.05;;;;;;;-147.53;100.00;57128.34;10467447;28;20052;-77
2023/04/14 11:00:27;;;;;;;4.07;1.05;;;;;;;-147.53;100.00;57128.34;10454360;28;20044;-77
2023/04/14 11:05:32;;;;;;;5.18;1.00;;;;;;;-147.53;100.00;57128.34;10454770;28;20087;-77
2023/04/14 11:10:34;;;;;;;4.53;0.90;;;;;;;-147.53;100.00;57128.34;10450974;28;20064;-76
2023/04/14 11:16:02;;;;;;;2.90;1.00;;;;;;;-147.53;100.00;57128.34;10474295;28;20044;-77
2023/04/14 11:21:09;;;;;;;3.30;0.60;;;;;;;-147.53;100.00;57128.34;10460045;28;20146;-77
2023/04/14 11:26:12;;;;;;;1.25;0.90;;;;;;;-147.53;100.00;57128.34;10467402;28;20040;-76
2023/04/14 11:31:16;;;;;;;2.78;0.63;;;;;;;-147.53;100.00;57128.34;10469485;28;20091;-76
2023/04/14 11:36:17;;;;;;;0.77;0.60;;;;;;;-147.53;100.00;57128.34;10452862;28;20056;-77
2023/04/14 11:41:20;;;;;;;3.55;0.80;;;;;;;-147.53;100.00;57128.34;10459119;28;20045;-77
2023/04/14 11:46:22;;;;;;;1.90;0.77;;;;;;;-147.53;100.00;57128.34;10450217;28;20045;-77
2023/04/14 11:51:29;;;;;;;2.95;1.20;;;;;;;-147.53;100.00;57128.34;10444021;28;20033;-76
2023/04/14 11:56:30;;;;;;;3.28;0.80;;;;;;;-147.53;100.00;57128.34;10441102;28;20049;-78
2023/04/14 12:01:32;;;;;;;2.17;0.73;;;;;;;-147.53;100.00;57128.34;10464105;28;20036;-77
2023/04/14 12:06:35;;;;;;;3.58;0.80;;;;;;;-147.53;100.00;57128.34;10475983;28;20047;-78
2023/04/14 12:11:37;;;;;;;1.27;0.60;;;;;;;-147.53;100.00;57128.34;10458745;28;20033;-77
2023/04/14 12:16:38;;;;;;;11.73;0.88;;;;;;;-147.53;100.00;57128.34;10458953;28;20232;-76
2023/04/14 12:21:40;;;;;;;1.42;0.60;;;;;;;-147.53;100.00;57128.34;10466436;28;20032;-76
2023/04/14 12:26:42;;;;;;;1.55;0.40;;;;;;;-147.53;100.00;57128.34;10449731;28;20048;-76
2023/04/14 12:31:43;;;;;;;;;;;;;;;-147.53;100.00;57128.34;10472757;28;20523;-76
2023/04/14 12:36:50;;;;;;;3.20;0.47;;;;;;;-147.53;100.00;57128.34;10454040;28;19978;-76
2023/04/14 12:41:52;;;;;;;1.25;0.43;;;;;;;-147.53;100.00;57128.34;10455286;28;20051;-77
2023/04/14 12:46:54;;;;;;;2.97;0.63;;;;;;;-147.53;100.00;57128.34;10462740;28;20395;-75
2023/04/14 12:51:56;;;;;;;3.78;1.27;;;;;;;-147.53;100.00;57128.34;10450911;28;20032;-76
2023/04/14 12:56:57;;;;;;;0.60;0.60;;;;;;;-147.53;100.00;57128.34;10455091;28;20048;-76
2023/04/14 13:01:59;;;;;;;2.72;0.68;;;;;;;-147.53;100.00;57128.34;10456058;28;20037;-75
2023/04/14 13:07:01;;;;;;;1.77;0.95;;;;;;;-147.53;100.00;57128.34;10458506;28;20040;-75
2023/04/14 13:12:03;;;;;;;1.02;0.70;;;;;;;-147.53;100.00;57128.34;10460751;28;20659;-74
2023/04/14 13:17:04;;;;;;;1.55;0.60;;;;;;;-147.53;100.00;57128.34;10462501;28;20044;-76
2023/04/14 13:22:06;;;;;;;3.78;1.33;;;;;;;-147.53;100.00;57128.34;10465715;28;20131;-77
2023/04/14 13:27:08;;;;;;;;;;;;;;;-147.53;100.00;57128.34;10444938;28;20044;-76
2023/04/14 13:32:10;;;;;;;0.60;0.47;;;;;;;-147.53;100.00;57128.34;10465013;28;19931;-75
2023/04/14 13:37:12;;;;;;;3.45;0.70;;;;;;;-147.53;100.00;57128.34;10463301;28;20103;-76
2023/04/14 13:42:14;;;;;;;1.33;0.90;;;;;;;-147.53;100.00;57128.34;10464696;28;20036;-76
2023/04/14 13:47:17;;;;;;;1.75;0.63;;;;;;;-147.53;100.00;57128.34;10447603;28;20098;-77
2023/04/14 13:52:19;;;;;;;2.28;0.80;;;;;;;-147.53;100.00;57128.34;10445601;28;20043;-76
2023/04/14 13:57:20;;;;;;;0.90;0.50;;;;;;;-147.53;100.00;57128.34;10452851;28;20459;-76
2023/04/14 14:02:22;;;;;;;0.40;0.40;;;;;;;-147.53;100.00;57128.34;10468631;28;20036;-76
2023/04/14 14:07:25;;;;;;;2.05;0.73;;;;;;;-147.53;100.00;57128.34;10470170;28;20063;-75
2023/04/14 14:12:26;;;;;;;1.10;0.60;;;;;;;-147.53;100.00;57128.34;10471014;28;20041;-76
2023/04/14 14:17:28;;;;;;;2.78;0.75;;;;;;;-147.53;100.00;57128.34;10463836;28;20041;-77
2023/04/14 14:22:30;;;;;;;3.30;0.60;;;;;;;-147.53;100.00;57128.34;10460662;28;20116;-75
2023/04/14 14:27:31;;;;;;;6.22;0.85;;;;;;;-147.53;100.00;57128.34;10468841;28;20455;-74
2023/04/14 14:32:34;;;;;;;2.42;0.60;;;;;;;-147.53;100.00;57128.34;10470174;28;20033;-86
2023/04/14 14:37:36;;;;;;;3.53;0.80;;;;;;;-147.53;100.00;57128.34;10461110;28;20114;-76
2023/04/14 14:42:37;;;;;;;1.55;0.90;;;;;;;-147.53;100.00;57128.34;10467524;28;20037;-77
2023/04/14 14:47:40;;;;;;;2.90;0.57;;;;;;;-147.53;100.00;57128.34;10474279;28;20562;-76
2023/04/14 14:52:42;;;;;;;1.60;0.88;;;;;;;-147.53;100.00;57128.34;10465486;28;20504;-78
2023/04/14 14:57:43;;;;;;;3.05;0.68;;;;;;;-147.53;100.00;57128.34;10457627;28;20044;-76
2023/04/14 15:02:45;;;;;;;1.73;0.68;;;;;;;-147.53;100.00;57128.34;10465754;28;20454;-76
2023/04/14 15:07:47;;;;;;;0.73;0.50;;;;;;;-147.53;100.00;57128.34;10470436;28;20052;-77
2023/04/14 15:12:48;;;;;;;6.70;0.77;;;;;;;-147.53;100.00;57128.34;10457864;28;20052;-76
2023/04/14 15:17:50;;;;;;;0.98;0.40;;;;;;;-147.53;100.00;57128.34;10474122;28;20083;-77
2023/04/14 15:22:52;;;;;;;2.28;0.85;;;;;;;-147.53;100.00;57128.34;10464322;28;20049;-77
2023/04/14 15:27:54;;;;;;;3.00;0.80;;;;;;;-147.53;100.00;57128.34;10457061;28;20095;-78
2023/04/14 15:32:56;;;;;;;2.97;0.93;;;;;;;-147.53;100.00;57128.34;10466905;28;20091;-77
2023/04/14 15:37:58;;;;;;;0.95;0.55;;;;;;;-147.53;100.00;57128.34;10453967;28;20462;-77
2023/04/14 15:43:01;;;;;;;2.60;0.80;;;;;;;-147.53;100.00;57128.34;10449277;28;20052;-77
2023/04/14 15:48:02;;;;;;;1.90;0.70;;;;;;;-147.53;100.00;57128.34;10453611;28;20045;-76
2023/04/14 15:53:04;;;;;;;4.80;1.02;;;;;;;-147.53;100.00;57128.34;10441605;28;20044;-77
2023/04/14 15:58:07;;;;;;;2.97;0.70;;;;;;;-147.53;100.00;57128.34;10458896;28;20354;-77
2023/04/14 16:03:10;;;;;;;1.30;0.70;;;;;;;-147.53;100.00;57128.34;10459614;28;20624;-77
2023/04/14 16:08:13;;;;;;;4.82;0.70;;;;;;;-147.53;100.00;57128.34;10452716;28;20041;-78
2023/04/14 16:13:14;;;;;;;2.70;1.13;;;;;;;-147.53;100.00;57128.34;10481688;28;20463;-78
2023/04/14 16:18:16;;;;;;;3.80;1.10;;;;;;;-147.53;100.00;57128.34;10463234;28;20048;-77
2023/04/14 16:23:18;;;;;;;2.40;0.82;;;;;;;-147.53;100.00;57128.34;10474834;28;20043;-77
2023/04/14 16:28:21;;;;;;;5.47;1.13;;;;;;;-147.53;100.00;57128.34;10452360;28;20037;-77
2023/04/14 16:33:23;;;;;;;2.50;0.80;;;;;;;-147.53;100.00;57128.34;10463273;28;20075;-77
2023/04/14 16:38:25;;;;;;;3.05;0.80;;;;;;;-147.53;100.00;57128.34;10462254;28;20040;-77
2023/04/14 16:43:27;;;;;;;2.33;0.80;;;;;;;-147.53;100.00;57128.34;10454486;28;20036;-77
2023/04/14 16:48:29;;;;;;;5.32;1.25;;;;;;;-147.53;100.00;57128.34;10469840;28;20056;-77
2023/04/14 16:53:31;;;;;;;6.03;1.05;;;;;;;-147.53;100.00;57128.34;10464450;28;20044;-77
2023/04/14 16:58:33;;;;;;;2.58;0.90;;;;;;;-147.53;100.00;57128.34;10453444;28;20044;-77
2023/04/14 17:03:35;;;;;;;2.55;0.95;;;;;;;-147.53;100.00;57128.34;10459138;28;20060;-77
2023/04/14 17:08:38;;;;;;;2.45;1.10;;;;;;;-147.53;100.00;57128.34;10462239;28;20052;-76
2023/04/14 17:13:41;;;;;;;1.90;0.98;;;;;;;-147.53;100.00;57128.34;10458547;28;20041;-77
2023/04/14 17:18:42;;;;;;;4.80;1.00;;;;;;;-147.53;100.00;57128.34;10453152;28;20044;-76
2023/04/14 17:23:44;;;;;;;1.70;0.73;;;;;;;-147.53;100.00;57128.34;10454334;28;20049;-77
2023/04/14 17:28:46;;;;;;;4.43;1.15;;;;;;;-147.53;100.00;57128.34;10441038;28;20231;-77
2023/04/14 17:33:48;;;;;;;2.45;1.23;;;;;;;-147.53;100.00;57128.34;10467925;28;20451;-76
2023/04/14 17:38:50;;;;;;;1.27;0.65;;;;;;;-147.53;100.00;57128.34;10443561;28;20055;-77
2023/04/14 17:43:52;;;;;;;3.80;1.20;;;;;;;-147.53;100.00;57128.34;10434684;28;20087;-79
2023/04/14 17:48:53;;;;;;;1.98;0.70;;;;;;;-147.53;100.00;57128.34;10450974;28;20049;-78
2023/04/14 17:53:56;;;;;;;5.28;1.48;;;;;;;-147.53;100.00;57128.34;10425244;28;20052;-77
2023/04/14 17:58:59;;;;;;;1.65;1.00;;;;;;;-147.53;100.00;57128.34;10470034;28;20867;-77
2023/04/14 18:04:03;;;;;;;3.50;1.10;;;;;;;-147.53;100.00;57128.34;10476615;28;20048;-77
2023/04/14 18:09:05;;;;;;;1.15;0.95;;;;;;;-147.53;100.00;57128.34;10451965;28;20127;-77
2023/04/14 18:14:06;;;;;;;2.03;1.05;;;;;;;-147.53;100.00;57128.34;10476381;28;20048;-77
2023/04/14 18:19:08;;;;;;;1.02;0.60;;;;;;;-147.53;100.00;57128.34;10457915;28;20165;-77
2023/04/14 18:24:11;;;;;;;2.95;0.82;;;;;;;-147.53;100.00;57128.34;10460735;28;20553;-77
2023/04/14 18:29:15;;;;;;;3.92;0.98;;;;;;;-147.53;100.00;57128.34;10482551;28;20428;-77
2023/04/14 18:34:17;;;;;;;2.22;0.90;;;;;;;-147.53;100.00;57128.34;10462539;28;20041;-77
2023/04/14 18:39:18;;;;;;;3.28;0.65;;;;;;;-147.53;100.00;57128.34;10440860;28;20220;-77
2023/04/14 18:44:20;;;;;;;1.00;0.65;;;;;;;-147.53;100.00;57128.34;10452546;28;20046;-77
2023/04/14 18:49:22;;;;;;;2.90;0.70;;;;;;;-147.53;100.00;57128.34;10470101;28;20037;-77
2023/04/14 18:54:24;;;;;;;2.60;1.00;;;;;;;-147.53;100.00;57128.34;10418193;28;20280;-77
2023/04/14 18:59:26;;;;;;;3.53;1.15;;;;;;;-147.53;100.00;57128.34;10479523;28;20040;-77
2023/04/14 19:04:28;;;;;;;4.55;1.63;;;;;;;-147.53;100.00;57128.34;10455810;28;20519;-77
2023/04/14 19:09:29;;;;;;;1.50;0.98;;;;;;;-147.53;100.00;57128.34;10448415;28;20127;-77
2023/04/14 19:14:31;;;;;;;2.22;1.17;;;;;;;-147.53;100.00;57128.34;10440929;28;20052;-77
2023/04/14 19:19:34;;;;;;;1.88;0.80;;;;;;;-147.53;100.00;57128.34;10478886;28;20041;-77
2023/04/14 19:24:36;;;;;;;3.75;1.30;;;;;;;-147.53;100.00;57128.34;10442585;28;20077;-77
2023/04/14 19:29:37;;;;;;;3.95;1.10;;;;;;;-147.53;100.00;57128.34;10469046;28;20416;-77
2023/04/14 19:34:39;;;;;;;2.05;0.90;;;;;;;-147.53;100.00;57128.34;10476018;28;20044;-77
2023/04/14 19:39:42;;;;;;;2.97;0.88;;;;;;;-147.53;100.00;57128.34;10453530;28;20516;-77
2023/04/14 19:44:43;;;;;;;3.60;0.73;;;;;;;-147.53;100.00;57128.34;10464020;28;20138;-77
2023/04/14 19:49:45;;;;;;;4.93;1.05;;;;;;;-147.53;100.00;57128.34;10466259;28;20044;-77
2023/04/14 19:54:48;;;;;;;3.88;1.10;;;;;;;-147.53;100.00;57128.34;10468659;28;20032;-77
2023/04/14 19:59:49;;;;;;;1.85;1.15;;;;;;;-147.53;100.00;57128.34;10462329;28;20450;-77
2023/04/14 20:04:51;;;;;;;4.43;1.30;;;;;;;-147.53;100.00;57128.34;10446841;28;20425;-77
2023/04/14 20:09:53;;;;;;;2.92;1.15;;;;;;;-147.53;100.00;57128.34;10461255;28;20044;-77
2023/04/14 20:14:55;;;;;;;1.95;1.23;;;;;;;-147.53;100.00;57128.34;10456010;28;20106;-76
2023/04/14 20:19:57;;;;;;;4.20;1.30;;;;;;;-147.53;100.00;57128.34;10445522;28;20583;-77
2023/04/14 20:24:59;;;;;;;2.78;1.38;;;;;;;-147.53;100.00;57128.34;10469606;28;20288;-76
2023/04/14 20:30:00;;;;;;;2.42;1.58;;;;;;;-147.53;100.00;57128.34;10462736;28;20056;-76
2023/04/14 20:35:02;;;;;;;1.75;1.10;;;;;;;-147.53;100.00;57128.34;10436701;28;20049;-78
2023/04/14 20:40:04;;;;;;;2.20;1.20;;;;;;;-147.53;100.00;57128.34;10452810;28;20045;-78
2023/04/14 20:45:07;;;;;;;1.85;1.05;;;;;;;-147.53;100.00;57128.34;10461448;28;20049;-77
2023/04/14 20:50:09;;;;;;;1.80;0.98;;;;;;;-147.53;100.00;57128.34;10470489;28;20048;-77
2023/04/14 20:55:12;;;;;;;4.28;2.35;;;;;;;-147.53;100.00;57128.34;10469732;28;20060;-77
2023/04/14 21:00:15;;;;;;;2.40;1.42;;;;;;;-147.53;100.00;57128.34;10454498;28;20032;-77
2023/04/14 21:05:18;;;;;;;1.75;0.98;;;;;;;-147.53;100.00;57128.34;10455091;28;20056;-76
2023/04/14 21:10:20;;;;;;;2.10;1.13;;;;;;;-147.53;100.00;57128.34;10453505;28;20041;-77
2023/04/14 21:15:22;;;;;;;3.35;1.65;;;;;;;-147.53;100.00;57128.34;10436298;28;20053;-76
2023/04/14 21:20:43;;;;;;;3.30;1.75;;;;;;;-147.53;100.00;57128.34;10476291;28;20139;-76
2023/04/14 21:25:45;;;;;;;3.15;1.73;;;;;;;-147.53;100.00;57128.34;10463557;28;20091;-76
2023/04/14 21:30:47;;;;;;;2.50;1.50;;;;;;;-147.53;100.00;57128.34;10478739;28;20306;-77
2023/04/14 21:35:49;;;;;;;4.40;1.98;;;;;;;-147.53;100.00;57128.34;10480530;28;20048;-76
2023/04/14 21:40:51;;;;;;;2.97;1.30;;;;;;;-147.53;100.00;57128.34;10466737;28;20040;-76
2023/04/14 21:45:53;;;;;;;;;;;;;;;-147.53;100.00;57128.34;10471439;28;20057;-77
2023/04/14 21:50:55;;;;;;;2.80;1.23;;;;;;;-147.53;100.00;57128.34;10451489;28;19929;-76
2023/04/14 21:55:57;;;;;;;3.38;1.60;;;;;;;-147.53;100.00;57128.34;10467385;28;20041;-76
2023/04/14 22:01:11;;;;;;;3.17;1.48;;;;;;;-147.53;100.00;57128.34;10468713;28;20040;-77
2023/04/14 22:06:14;;;;;;;;;;;;;;;-147.53;100.00;57128.34;10473201;28;20068;-78
2023/04/14 22:11:18;;;;;;;3.30;1.50;;;;;;;-147.53;100.00;57128.34;10440138;28;19925;-79
2023/04/14 22:16:22;;;;;;;1.52;0.98;;;;;;;-147.53;100.00;57128.34;10478227;28;20076;-78
2023/04/14 22:21:24;;;;;;;2.17;1.10;;;;;;;-147.53;100.00;57128.34;10474002;28;20039;-78
2023/04/14 22:26:26;;;;;;;2.33;1.15;;;;;;;-147.53;100.00;57128.34;10468336;28;20497;-78
2023/04/14 22:31:28;;;;;;;2.15;1.33;;;;;;;-147.53;100.00;57128.34;10444214;28;20120;-76
2023/04/14 22:36:30;;;;;;;3.03;1.40;;;;;;;-147.53;100.00;57128.34;10483538;28;20048;-75
2023/04/14 22:41:32;;;;;;;4.03;2.03;;;;;;;-147.53;100.00;57128.34;10454849;28;20041;-76